sensor_id;sensor_type;location;lat;lon;timestamp;temperature;humidity
8860;DHT22;4466;50.948;4.832;2023-12-04T00:00:21;2.30;99.90
8860;DHT22;4466;50.948;4.832;2023-12-04T00:02:47;2.30;99.90
8860;DHT22;4466;50.948;4.832;2023-12-04T00:05:12;2.30;99.90
8860;DHT22;4466;50.948;4.832;2023-12-04T00:07:38;2.30;99.90
8860;DHT22;4466;50.948;4.832;2023-12-04T00:10:04;2.30;99.90
8860;DHT22;4466;50.948;4.832;2023-12-04T00:12:30;2.30;99.90
8860;DHT22;4466;50.948;4.832;2023-12-04T00:14:55;2.40;99.90
8860;DHT22;4466;50.948;4.832;2023-12-04T00:17:22;2.40;99.90
8860;DHT22;4466;50.948;4.832;2023-12-04T00:19:47;2.40;99.90
8860;DHT22;4466;50.948;4.832;2023-12-04T00:22:13;2.30;99.90
8860;DHT22;4466;50.948;4.832;2023-12-04T00:24:39;2.40;99.90
8860;DHT22;4466;50.948;4.832;2023-12-04T00:27:04;2.30;99.90
8860;DHT22;4466;50.948;4.832;2023-12-04T00:29:30;2.40;99.90
8860;DHT22;4466;50.948;4.832;2023-12-04T00:31:56;2.30;99.90
8860;DHT22;4466;50.948;4.832;2023-12-04T00:34:22;2.30;99.90
8860;DHT22;4466;50.948;4.832;2023-12-04T00:36:48;2.30;99.90
8860;DHT22;4466;50.948;4.832;2023-12-04T00:39:17;2.40;99.90
8860;DHT22;4466;50.948;4.832;2023-12-04T00:41:42;2.40;99.90
8860;DHT22;4466;50.948;4.832;2023-12-04T00:44:08;2.30;99.90
8860;DHT22;4466;50.948;4.832;2023-12-04T00:46:34;2.30;99.90
8860;DHT22;4466;50.948;4.832;2023-12-04T00:48:59;2.30;99.90
8860;DHT22;4466;50.948;4.832;2023-12-04T00:51:25;2.30;99.90
8860;DHT22;4466;50.948;4.832;2023-12-04T00:53:51;2.30;99.90
8860;DHT22;4466;50.948;4.832;2023-12-04T00:56:17;2.30;99.90
8860;DHT22;4466;50.948;4.832;2023-12-04T00:58:45;2.30;99.90
8860;DHT22;4466;50.948;4.832;2023-12-04T01:01:10;2.30;99.90
8860;DHT22;4466;50.948;4.832;2023-12-04T01:03:37;2.20;99.90
8860;DHT22;4466;50.948;4.832;2023-12-04T01:06:03;2.30;99.90
8860;DHT22;4466;50.948;4.832;2023-12-04T01:08:29;2.20;99.90
8860;DHT22;4466;50.948;4.832;2023-12-04T01:10:54;2.30;99.90
8860;DHT22;4466;50.948;4.832;2023-12-04T01:13:20;2.30;99.90
8860;DHT22;4466;50.948;4.832;2023-12-04T01:15:46;2.30;99.90
8860;DHT22;4466;50.948;4.832;2023-12-04T01:18:13;2.30;99.90
8860;DHT22;4466;50.948;4.832;2023-12-04T01:20:39;2.30;99.90
8860;DHT22;4466;50.948;4.832;2023-12-04T01:23:05;2.30;99.90
8860;DHT22;4466;50.948;4.832;2023-12-04T01:25:31;2.30;99.90
8860;DHT22;4466;50.948;4.832;2023-12-04T01:27:56;2.30;99.90
8860;DHT22;4466;50.948;4.832;2023-12-04T01:30:22;2.30;99.90
8860;DHT22;4466;50.948;4.832;2023-12-04T01:32:47;2.30;99.90
8860;DHT22;4466;50.948;4.832;2023-12-04T01:35:13;2.20;99.90
8860;DHT22;4466;50.948;4.832;2023-12-04T01:37:39;2.30;99.90
8860;DHT22;4466;50.948;4.832;2023-12-04T01:40:05;2.30;99.90
8860;DHT22;4466;50.948;4.832;2023-12-04T01:42:32;2.20;99.90
8860;DHT22;4466;50.948;4.832;2023-12-04T01:44:58;2.20;99.90
8860;DHT22;4466;50.948;4.832;2023-12-04T01:47:23;2.20;99.90
8860;DHT22;4466;50.948;4.832;2023-12-04T01:49:49;2.20;99.90
8860;DHT22;4466;50.948;4.832;2023-12-04T01:52:16;2.20;99.90
8860;DHT22;4466;50.948;4.832;2023-12-04T01:54:42;2.20;99.90
8860;DHT22;4466;50.948;4.832;2023-12-04T01:57:09;2.10;99.90
8860;DHT22;4466;50.948;4.832;2023-12-04T01:59:35;2.20;99.90
8860;DHT22;4466;50.948;4.832;2023-12-04T02:02:01;2.20;99.90
8860;DHT22;4466;50.948;4.832;2023-12-04T02:04:27;2.30;99.90
8860;DHT22;4466;50.948;4.832;2023-12-04T02:06:53;2.40;99.90
8860;DHT22;4466;50.948;4.832;2023-12-04T02:09:19;2.30;99.90
8860;DHT22;4466;50.948;4.832;2023-12-04T02:11:45;2.40;99.90
8860;DHT22;4466;50.948;4.832;2023-12-04T02:14:11;2.40;99.90
8860;DHT22;4466;50.948;4.832;2023-12-04T02:16:41;2.40;99.90
8860;DHT22;4466;50.948;4.832;2023-12-04T02:19:08;2.40;99.90
8860;DHT22;4466;50.948;4.832;2023-12-04T02:21:37;2.40;99.90
8860;DHT22;4466;50.948;4.832;2023-12-04T02:24:02;2.40;99.90
8860;DHT22;4466;50.948;4.832;2023-12-04T02:26:32;2.40;99.90
8860;DHT22;4466;50.948;4.832;2023-12-04T02:29:05;2.40;99.90
8860;DHT22;4466;50.948;4.832;2023-12-04T02:31:34;2.40;99.90
8860;DHT22;4466;50.948;4.832;2023-12-04T02:34:01;2.40;99.90
8860;DHT22;4466;50.948;4.832;2023-12-04T02:36:30;2.40;99.90
8860;DHT22;4466;50.948;4.832;2023-12-04T02:38:57;2.40;99.90
8860;DHT22;4466;50.948;4.832;2023-12-04T02:41:23;2.30;99.90
8860;DHT22;4466;50.948;4.832;2023-12-04T02:43:49;2.30;99.90
8860;DHT22;4466;50.948;4.832;2023-12-04T02:46:15;2.30;99.90
8860;DHT22;4466;50.948;4.832;2023-12-04T02:48:40;2.30;99.90
8860;DHT22;4466;50.948;4.832;2023-12-04T02:51:07;2.30;99.90
8860;DHT22;4466;50.948;4.832;2023-12-04T02:53:33;2.30;99.90
8860;DHT22;4466;50.948;4.832;2023-12-04T02:55:58;2.40;99.90
8860;DHT22;4466;50.948;4.832;2023-12-04T02:58:24;2.40;99.90
8860;DHT22;4466;50.948;4.832;2023-12-04T03:00:50;2.40;99.90
8860;DHT22;4466;50.948;4.832;2023-12-04T03:03:15;2.40;99.90
8860;DHT22;4466;50.948;4.832;2023-12-04T03:05:41;2.50;99.90
8860;DHT22;4466;50.948;4.832;2023-12-04T03:08:06;2.50;99.90
8860;DHT22;4466;50.948;4.832;2023-12-04T03:10:32;2.50;99.90
8860;DHT22;4466;50.948;4.832;2023-12-04T03:12:58;2.50;99.90
8860;DHT22;4466;50.948;4.832;2023-12-04T03:15:23;2.50;99.90
8860;DHT22;4466;50.948;4.832;2023-12-04T03:17:49;2.50;99.90
8860;DHT22;4466;50.948;4.832;2023-12-04T03:20:15;2.50;99.90
8860;DHT22;4466;50.948;4.832;2023-12-04T03:22:40;2.50;99.90
8860;DHT22;4466;50.948;4.832;2023-12-04T03:25:06;2.40;99.90
8860;DHT22;4466;50.948;4.832;2023-12-04T03:27:32;2.40;99.90
8860;DHT22;4466;50.948;4.832;2023-12-04T03:29:57;2.50;99.90
8860;DHT22;4466;50.948;4.832;2023-12-04T03:32:23;2.40;99.90
8860;DHT22;4466;50.948;4.832;2023-12-04T03:34:49;2.40;99.90
8860;DHT22;4466;50.948;4.832;2023-12-04T03:37:14;2.40;99.90
8860;DHT22;4466;50.948;4.832;2023-12-04T03:39:40;2.30;99.90
8860;DHT22;4466;50.948;4.832;2023-12-04T03:42:06;2.40;99.90
8860;DHT22;4466;50.948;4.832;2023-12-04T03:44:31;2.30;99.90
8860;DHT22;4466;50.948;4.832;2023-12-04T03:46:57;2.40;99.90
8860;DHT22;4466;50.948;4.832;2023-12-04T03:49:23;2.40;99.90
8860;DHT22;4466;50.948;4.832;2023-12-04T03:51:48;2.40;99.90
8860;DHT22;4466;50.948;4.832;2023-12-04T03:54:14;2.40;99.90
8860;DHT22;4466;50.948;4.832;2023-12-04T03:56:40;2.40;99.90
8860;DHT22;4466;50.948;4.832;2023-12-04T03:59:06;2.40;99.90
8860;DHT22;4466;50.948;4.832;2023-12-04T04:01:33;2.40;99.90
8860;DHT22;4466;50.948;4.832;2023-12-04T04:03:59;2.30;99.90
8860;DHT22;4466;50.948;4.832;2023-12-04T04:06:25;2.40;99.90
8860;DHT22;4466;50.948;4.832;2023-12-04T04:08:50;2.40;99.90
8860;DHT22;4466;50.948;4.832;2023-12-04T04:11:17;2.30;99.90
8860;DHT22;4466;50.948;4.832;2023-12-04T04:13:43;2.30;99.90
8860;DHT22;4466;50.948;4.832;2023-12-04T04:16:15;2.40;99.90
8860;DHT22;4466;50.948;4.832;2023-12-04T04:18:42;2.40;99.90
8860;DHT22;4466;50.948;4.832;2023-12-04T04:21:08;2.30;99.90
8860;DHT22;4466;50.948;4.832;2023-12-04T04:23:34;2.30;99.90
8860;DHT22;4466;50.948;4.832;2023-12-04T04:26:01;2.30;99.90
8860;DHT22;4466;50.948;4.832;2023-12-04T04:28:26;2.30;99.90
8860;DHT22;4466;50.948;4.832;2023-12-04T04:30:52;2.40;99.90
8860;DHT22;4466;50.948;4.832;2023-12-04T04:33:17;2.30;99.90
8860;DHT22;4466;50.948;4.832;2023-12-04T04:35:43;2.30;99.90
8860;DHT22;4466;50.948;4.832;2023-12-04T04:38:09;2.40;99.90
8860;DHT22;4466;50.948;4.832;2023-12-04T04:40:35;2.40;99.90
8860;DHT22;4466;50.948;4.832;2023-12-04T04:43:00;2.40;99.90
8860;DHT22;4466;50.948;4.832;2023-12-04T04:45:26;2.40;99.90
8860;DHT22;4466;50.948;4.832;2023-12-04T04:47:52;2.40;99.90
8860;DHT22;4466;50.948;4.832;2023-12-04T04:50:17;2.40;99.90
8860;DHT22;4466;50.948;4.832;2023-12-04T04:52:43;2.40;99.90
8860;DHT22;4466;50.948;4.832;2023-12-04T04:55:09;2.40;99.90
8860;DHT22;4466;50.948;4.832;2023-12-04T04:57:34;2.50;99.90
8860;DHT22;4466;50.948;4.832;2023-12-04T05:00:00;2.50;99.90
8860;DHT22;4466;50.948;4.832;2023-12-04T05:02:25;2.50;99.90
8860;DHT22;4466;50.948;4.832;2023-12-04T05:04:51;2.60;99.90
8860;DHT22;4466;50.948;4.832;2023-12-04T05:07:17;2.60;99.90
8860;DHT22;4466;50.948;4.832;2023-12-04T05:09:43;2.50;99.90
8860;DHT22;4466;50.948;4.832;2023-12-04T05:12:08;2.50;99.90
8860;DHT22;4466;50.948;4.832;2023-12-04T05:14:34;2.50;99.90
8860;DHT22;4466;50.948;4.832;2023-12-04T05:16:59;2.50;99.90
8860;DHT22;4466;50.948;4.832;2023-12-04T05:19:25;2.50;99.90
8860;DHT22;4466;50.948;4.832;2023-12-04T05:21:51;2.60;99.90
8860;DHT22;4466;50.948;4.832;2023-12-04T05:24:16;2.60;99.90
8860;DHT22;4466;50.948;4.832;2023-12-04T05:26:43;2.60;99.90
8860;DHT22;4466;50.948;4.832;2023-12-04T05:29:08;2.60;99.90
8860;DHT22;4466;50.948;4.832;2023-12-04T05:31:34;2.50;99.90
8860;DHT22;4466;50.948;4.832;2023-12-04T05:34:00;2.60;99.90
8860;DHT22;4466;50.948;4.832;2023-12-04T05:36:25;2.60;99.90
8860;DHT22;4466;50.948;4.832;2023-12-04T05:38:51;2.60;99.90
8860;DHT22;4466;50.948;4.832;2023-12-04T05:41:19;2.60;99.90
8860;DHT22;4466;50.948;4.832;2023-12-04T05:43:47;2.60;99.90
8860;DHT22;4466;50.948;4.832;2023-12-04T05:46:13;2.60;99.90
8860;DHT22;4466;50.948;4.832;2023-12-04T05:48:38;2.60;99.90
8860;DHT22;4466;50.948;4.832;2023-12-04T05:51:04;2.60;99.90
8860;DHT22;4466;50.948;4.832;2023-12-04T05:53:30;2.60;99.90
8860;DHT22;4466;50.948;4.832;2023-12-04T05:55:56;2.60;99.90
8860;DHT22;4466;50.948;4.832;2023-12-04T05:58:24;2.60;99.90
8860;DHT22;4466;50.948;4.832;2023-12-04T06:00:50;2.60;99.90
8860;DHT22;4466;50.948;4.832;2023-12-04T06:03:15;2.60;99.90
8860;DHT22;4466;50.948;4.832;2023-12-04T06:05:41;2.50;99.90
8860;DHT22;4466;50.948;4.832;2023-12-04T06:08:07;2.50;99.90
8860;DHT22;4466;50.948;4.832;2023-12-04T06:10:32;2.60;99.90
8860;DHT22;4466;50.948;4.832;2023-12-04T06:13:00;2.50;99.90
8860;DHT22;4466;50.948;4.832;2023-12-04T06:15:26;2.50;99.90
8860;DHT22;4466;50.948;4.832;2023-12-04T06:17:51;2.50;99.90
8860;DHT22;4466;50.948;4.832;2023-12-04T06:20:17;2.60;99.90
8860;DHT22;4466;50.948;4.832;2023-12-04T06:22:43;2.60;99.90
8860;DHT22;4466;50.948;4.832;2023-12-04T06:25:09;2.70;99.90
8860;DHT22;4466;50.948;4.832;2023-12-04T06:27:35;2.70;99.90
8860;DHT22;4466;50.948;4.832;2023-12-04T06:30:01;2.70;99.90
8860;DHT22;4466;50.948;4.832;2023-12-04T06:32:28;2.70;99.90
8860;DHT22;4466;50.948;4.832;2023-12-04T06:34:53;2.80;99.90
8860;DHT22;4466;50.948;4.832;2023-12-04T06:37:21;2.80;99.90
8860;DHT22;4466;50.948;4.832;2023-12-04T06:39:48;2.80;99.90
8860;DHT22;4466;50.948;4.832;2023-12-04T06:42:15;2.80;99.90
8860;DHT22;4466;50.948;4.832;2023-12-04T06:44:41;2.80;99.90
8860;DHT22;4466;50.948;4.832;2023-12-04T06:47:08;2.80;99.90
8860;DHT22;4466;50.948;4.832;2023-12-04T06:49:34;2.80;99.90
8860;DHT22;4466;50.948;4.832;2023-12-04T06:52:00;2.90;99.90
8860;DHT22;4466;50.948;4.832;2023-12-04T06:54:27;2.90;99.90
8860;DHT22;4466;50.948;4.832;2023-12-04T06:56:52;2.90;99.90
8860;DHT22;4466;50.948;4.832;2023-12-04T06:59:18;2.90;99.90
8860;DHT22;4466;50.948;4.832;2023-12-04T07:01:45;2.90;99.90
8860;DHT22;4466;50.948;4.832;2023-12-04T07:04:10;3.00;99.90
8860;DHT22;4466;50.948;4.832;2023-12-04T07:06:37;3.00;99.90
8860;DHT22;4466;50.948;4.832;2023-12-04T07:09:03;3.00;99.90
8860;DHT22;4466;50.948;4.832;2023-12-04T07:11:29;3.00;99.90
8860;DHT22;4466;50.948;4.832;2023-12-04T07:13:55;3.00;99.90
8860;DHT22;4466;50.948;4.832;2023-12-04T07:16:20;3.00;99.90
8860;DHT22;4466;50.948;4.832;2023-12-04T07:18:46;3.10;99.90
8860;DHT22;4466;50.948;4.832;2023-12-04T07:21:12;3.10;99.90
8860;DHT22;4466;50.948;4.832;2023-12-04T07:23:37;3.00;99.90
8860;DHT22;4466;50.948;4.832;2023-12-04T07:26:03;3.00;99.90
8860;DHT22;4466;50.948;4.832;2023-12-04T07:28:29;3.00;99.90
8860;DHT22;4466;50.948;4.832;2023-12-04T07:30:55;3.00;99.90
8860;DHT22;4466;50.948;4.832;2023-12-04T07:33:21;3.00;99.90
8860;DHT22;4466;50.948;4.832;2023-12-04T07:35:47;3.00;99.90
8860;DHT22;4466;50.948;4.832;2023-12-04T07:38:12;3.00;99.90
8860;DHT22;4466;50.948;4.832;2023-12-04T07:40:38;3.20;99.90
8860;DHT22;4466;50.948;4.832;2023-12-04T07:43:04;3.40;99.90
8860;DHT22;4466;50.948;4.832;2023-12-04T07:45:29;3.50;99.90
8860;DHT22;4466;50.948;4.832;2023-12-04T07:47:55;3.60;99.90
8860;DHT22;4466;50.948;4.832;2023-12-04T07:50:21;3.70;99.90
8860;DHT22;4466;50.948;4.832;2023-12-04T07:52:46;3.80;99.90
8860;DHT22;4466;50.948;4.832;2023-12-04T07:55:12;3.80;99.90
8860;DHT22;4466;50.948;4.832;2023-12-04T07:57:38;3.90;99.90
8860;DHT22;4466;50.948;4.832;2023-12-04T08:00:04;3.90;99.90
8860;DHT22;4466;50.948;4.832;2023-12-04T08:02:30;3.90;99.90
8860;DHT22;4466;50.948;4.832;2023-12-04T08:04:56;3.90;99.90
8860;DHT22;4466;50.948;4.832;2023-12-04T08:07:21;3.90;99.90
8860;DHT22;4466;50.948;4.832;2023-12-04T08:21:48;3.80;99.90
8860;DHT22;4466;50.948;4.832;2023-12-04T08:24:14;4.10;99.90
8860;DHT22;4466;50.948;4.832;2023-12-04T08:26:42;4.00;99.90
8860;DHT22;4466;50.948;4.832;2023-12-04T08:29:07;4.10;99.90
8860;DHT22;4466;50.948;4.832;2023-12-04T08:31:33;4.20;99.90
8860;DHT22;4466;50.948;4.832;2023-12-04T08:33:59;4.10;99.90
8860;DHT22;4466;50.948;4.832;2023-12-04T08:36:24;4.00;99.90
8860;DHT22;4466;50.948;4.832;2023-12-04T08:38:50;3.90;99.90
8860;DHT22;4466;50.948;4.832;2023-12-04T08:41:15;3.80;99.90
8860;DHT22;4466;50.948;4.832;2023-12-04T08:43:41;3.70;99.90
8860;DHT22;4466;50.948;4.832;2023-12-04T08:46:07;3.70;99.90
8860;DHT22;4466;50.948;4.832;2023-12-04T08:48:36;3.60;99.90
8860;DHT22;4466;50.948;4.832;2023-12-04T08:51:02;3.60;99.90
8860;DHT22;4466;50.948;4.832;2023-12-04T08:53:28;3.60;99.90
8860;DHT22;4466;50.948;4.832;2023-12-04T08:55:53;3.80;99.90
8860;DHT22;4466;50.948;4.832;2023-12-04T08:58:19;3.90;99.90
8860;DHT22;4466;50.948;4.832;2023-12-04T09:00:45;3.90;99.90
8860;DHT22;4466;50.948;4.832;2023-12-04T09:03:10;3.80;99.90
8860;DHT22;4466;50.948;4.832;2023-12-04T09:05:36;3.80;99.90
8860;DHT22;4466;50.948;4.832;2023-12-04T09:08:03;3.80;99.90
8860;DHT22;4466;50.948;4.832;2023-12-04T09:10:28;3.80;99.90
8860;DHT22;4466;50.948;4.832;2023-12-04T09:12:54;3.70;99.90
8860;DHT22;4466;50.948;4.832;2023-12-04T09:15:20;3.70;99.90
8860;DHT22;4466;50.948;4.832;2023-12-04T09:17:46;3.70;99.90
8860;DHT22;4466;50.948;4.832;2023-12-04T09:20:11;3.70;99.90
8860;DHT22;4466;50.948;4.832;2023-12-04T09:22:37;3.70;99.90
8860;DHT22;4466;50.948;4.832;2023-12-04T09:25:07;3.70;99.90
8860;DHT22;4466;50.948;4.832;2023-12-04T09:27:34;3.70;99.90
8860;DHT22;4466;50.948;4.832;2023-12-04T09:30:00;3.70;99.90
8860;DHT22;4466;50.948;4.832;2023-12-04T09:32:26;3.60;99.90
8860;DHT22;4466;50.948;4.832;2023-12-04T09:34:51;3.60;99.90
8860;DHT22;4466;50.948;4.832;2023-12-04T09:37:17;3.80;99.90
8860;DHT22;4466;50.948;4.832;2023-12-04T09:39:43;3.90;99.90
8860;DHT22;4466;50.948;4.832;2023-12-04T09:42:09;4.10;99.90
8860;DHT22;4466;50.948;4.832;2023-12-04T09:44:36;4.20;99.90
8860;DHT22;4466;50.948;4.832;2023-12-04T09:47:03;4.20;99.90
8860;DHT22;4466;50.948;4.832;2023-12-04T09:49:31;4.30;99.90
8860;DHT22;4466;50.948;4.832;2023-12-04T09:52:01;4.40;99.90
8860;DHT22;4466;50.948;4.832;2023-12-04T09:54:29;4.40;99.90
8860;DHT22;4466;50.948;4.832;2023-12-04T09:56:55;4.40;99.90
8860;DHT22;4466;50.948;4.832;2023-12-04T09:59:23;4.40;99.90
8860;DHT22;4466;50.948;4.832;2023-12-04T10:01:50;4.40;99.90
8860;DHT22;4466;50.948;4.832;2023-12-04T10:04:16;4.30;99.90
8860;DHT22;4466;50.948;4.832;2023-12-04T10:06:44;4.30;99.90
8860;DHT22;4466;50.948;4.832;2023-12-04T10:09:12;4.30;99.90
8860;DHT22;4466;50.948;4.832;2023-12-04T10:11:42;4.30;99.90
8860;DHT22;4466;50.948;4.832;2023-12-04T10:14:16;4.30;99.90
8860;DHT22;4466;50.948;4.832;2023-12-04T10:16:45;4.30;99.90
8860;DHT22;4466;50.948;4.832;2023-12-04T10:19:22;4.20;99.90
8860;DHT22;4466;50.948;4.832;2023-12-04T10:21:58;4.20;99.90
8860;DHT22;4466;50.948;4.832;2023-12-04T10:24:35;4.20;99.90
8860;DHT22;4466;50.948;4.832;2023-12-04T10:27:08;4.10;99.90
8860;DHT22;4466;50.948;4.832;2023-12-04T10:29:47;4.10;99.90
8860;DHT22;4466;50.948;4.832;2023-12-04T10:32:17;4.00;99.90
8860;DHT22;4466;50.948;4.832;2023-12-04T10:34:44;4.00;99.90
8860;DHT22;4466;50.948;4.832;2023-12-04T10:37:10;4.00;99.90
8860;DHT22;4466;50.948;4.832;2023-12-04T10:39:46;4.00;99.90
8860;DHT22;4466;50.948;4.832;2023-12-04T10:44:52;4.00;99.90
8860;DHT22;4466;50.948;4.832;2023-12-04T10:47:20;4.10;99.90
8860;DHT22;4466;50.948;4.832;2023-12-04T10:49:49;4.00;99.90
8860;DHT22;4466;50.948;4.832;2023-12-04T10:52:23;4.20;99.90
8860;DHT22;4466;50.948;4.832;2023-12-04T10:54:49;4.10;99.90
8860;DHT22;4466;50.948;4.832;2023-12-04T10:57:43;4.30;99.90
8860;DHT22;4466;50.948;4.832;2023-12-04T11:00:08;4.20;99.90
8860;DHT22;4466;50.948;4.832;2023-12-04T11:02:43;4.30;99.90
8860;DHT22;4466;50.948;4.832;2023-12-04T11:05:14;4.30;99.90
8860;DHT22;4466;50.948;4.832;2023-12-04T11:07:56;4.40;99.90
8860;DHT22;4466;50.948;4.832;2023-12-04T11:10:23;4.50;99.90
8860;DHT22;4466;50.948;4.832;2023-12-04T11:13:02;4.50;99.90
8860;DHT22;4466;50.948;4.832;2023-12-04T11:15:29;4.60;99.90
8860;DHT22;4466;50.948;4.832;2023-12-04T11:17:59;4.50;99.90
8860;DHT22;4466;50.948;4.832;2023-12-04T11:20:29;4.50;99.90
8860;DHT22;4466;50.948;4.832;2023-12-04T11:22:56;4.40;99.90
8860;DHT22;4466;50.948;4.832;2023-12-04T11:25:23;4.30;99.90
8860;DHT22;4466;50.948;4.832;2023-12-04T11:27:51;4.30;99.90
8860;DHT22;4466;50.948;4.832;2023-12-04T11:30:24;4.30;99.90
8860;DHT22;4466;50.948;4.832;2023-12-04T11:32:50;4.20;99.90
8860;DHT22;4466;50.948;4.832;2023-12-04T11:35:18;4.10;99.90
8860;DHT22;4466;50.948;4.832;2023-12-04T11:37:45;4.10;99.90
8860;DHT22;4466;50.948;4.832;2023-12-04T11:40:13;4.00;99.90
8860;DHT22;4466;50.948;4.832;2023-12-04T11:42:39;4.00;99.90
8860;DHT22;4466;50.948;4.832;2023-12-04T11:45:05;4.00;99.90
8860;DHT22;4466;50.948;4.832;2023-12-04T11:47:52;4.10;99.90
8860;DHT22;4466;50.948;4.832;2023-12-04T11:50:20;4.10;99.90
8860;DHT22;4466;50.948;4.832;2023-12-04T11:52:47;4.20;99.90
8860;DHT22;4466;50.948;4.832;2023-12-04T11:55:16;4.20;99.90
8860;DHT22;4466;50.948;4.832;2023-12-04T11:57:42;4.20;99.90
8860;DHT22;4466;50.948;4.832;2023-12-04T12:05:23;4.30;99.90
8860;DHT22;4466;50.948;4.832;2023-12-04T12:07:49;4.20;99.90
8860;DHT22;4466;50.948;4.832;2023-12-04T12:10:16;4.20;99.90
8860;DHT22;4466;50.948;4.832;2023-12-04T12:12:45;4.20;99.90
8860;DHT22;4466;50.948;4.832;2023-12-04T12:15:14;4.20;99.90
8860;DHT22;4466;50.948;4.832;2023-12-04T12:17:41;4.10;99.90
8860;DHT22;4466;50.948;4.832;2023-12-04T12:20:07;4.20;99.90
8860;DHT22;4466;50.948;4.832;2023-12-04T12:22:34;4.20;99.90
8860;DHT22;4466;50.948;4.832;2023-12-04T12:25:01;4.30;99.90
8860;DHT22;4466;50.948;4.832;2023-12-04T12:27:30;4.30;99.90
8860;DHT22;4466;50.948;4.832;2023-12-04T12:29:56;4.30;99.90
8860;DHT22;4466;50.948;4.832;2023-12-04T12:32:22;4.30;99.90
8860;DHT22;4466;50.948;4.832;2023-12-04T12:34:48;4.20;99.90
8860;DHT22;4466;50.948;4.832;2023-12-04T12:37:14;4.30;99.90
8860;DHT22;4466;50.948;4.832;2023-12-04T12:39:40;4.30;99.90
8860;DHT22;4466;50.948;4.832;2023-12-04T12:42:06;4.30;99.90
8860;DHT22;4466;50.948;4.832;2023-12-04T12:44:40;4.30;99.90
8860;DHT22;4466;50.948;4.832;2023-12-04T12:47:09;4.30;99.90
8860;DHT22;4466;50.948;4.832;2023-12-04T12:49:34;4.30;99.90
8860;DHT22;4466;50.948;4.832;2023-12-04T12:52:04;4.30;99.90
8860;DHT22;4466;50.948;4.832;2023-12-04T12:54:30;4.30;99.90
8860;DHT22;4466;50.948;4.832;2023-12-04T12:56:59;4.20;99.90
8860;DHT22;4466;50.948;4.832;2023-12-04T12:59:26;4.30;99.90
8860;DHT22;4466;50.948;4.832;2023-12-04T13:01:52;4.30;99.90
8860;DHT22;4466;50.948;4.832;2023-12-04T13:04:18;4.30;99.90
8860;DHT22;4466;50.948;4.832;2023-12-04T13:06:44;4.30;99.90
8860;DHT22;4466;50.948;4.832;2023-12-04T13:09:13;4.20;99.90
8860;DHT22;4466;50.948;4.832;2023-12-04T13:11:49;4.20;99.90
8860;DHT22;4466;50.948;4.832;2023-12-04T13:14:17;4.30;99.90
8860;DHT22;4466;50.948;4.832;2023-12-04T13:16:42;4.20;99.90
8860;DHT22;4466;50.948;4.832;2023-12-04T13:19:08;4.20;99.90
8860;DHT22;4466;50.948;4.832;2023-12-04T13:21:34;4.20;99.90
8860;DHT22;4466;50.948;4.832;2023-12-04T13:24:00;4.30;99.90
8860;DHT22;4466;50.948;4.832;2023-12-04T13:26:25;4.20;99.90
8860;DHT22;4466;50.948;4.832;2023-12-04T13:28:51;4.10;99.90
8860;DHT22;4466;50.948;4.832;2023-12-04T13:31:17;4.20;99.90
8860;DHT22;4466;50.948;4.832;2023-12-04T13:33:42;4.20;99.90
8860;DHT22;4466;50.948;4.832;2023-12-04T13:36:14;4.20;99.90
8860;DHT22;4466;50.948;4.832;2023-12-04T13:38:39;4.20;99.90
8860;DHT22;4466;50.948;4.832;2023-12-04T13:41:05;4.20;99.90
8860;DHT22;4466;50.948;4.832;2023-12-04T13:43:53;4.20;99.90
8860;DHT22;4466;50.948;4.832;2023-12-04T13:46:20;4.10;99.90
8860;DHT22;4466;50.948;4.832;2023-12-04T13:48:46;4.10;99.90
8860;DHT22;4466;50.948;4.832;2023-12-04T13:51:13;4.10;99.90
8860;DHT22;4466;50.948;4.832;2023-12-04T13:53:39;4.10;99.90
8860;DHT22;4466;50.948;4.832;2023-12-04T13:56:10;4.10;99.90
8860;DHT22;4466;50.948;4.832;2023-12-04T13:58:36;4.10;99.90
8860;DHT22;4466;50.948;4.832;2023-12-04T14:01:11;4.10;99.90
8860;DHT22;4466;50.948;4.832;2023-12-04T14:03:44;4.20;99.90
8860;DHT22;4466;50.948;4.832;2023-12-04T14:06:10;4.20;99.90
8860;DHT22;4466;50.948;4.832;2023-12-04T14:08:36;4.20;99.90
8860;DHT22;4466;50.948;4.832;2023-12-04T14:11:03;4.20;99.90
8860;DHT22;4466;50.948;4.832;2023-12-04T14:13:29;4.20;99.90
8860;DHT22;4466;50.948;4.832;2023-12-04T14:15:55;4.10;99.90
8860;DHT22;4466;50.948;4.832;2023-12-04T14:18:22;4.20;99.90
8860;DHT22;4466;50.948;4.832;2023-12-04T14:20:48;4.20;99.90
8860;DHT22;4466;50.948;4.832;2023-12-04T14:23:13;4.10;99.90
8860;DHT22;4466;50.948;4.832;2023-12-04T14:25:40;4.10;99.90
8860;DHT22;4466;50.948;4.832;2023-12-04T14:28:06;4.10;99.90
8860;DHT22;4466;50.948;4.832;2023-12-04T14:30:32;4.10;99.90
8860;DHT22;4466;50.948;4.832;2023-12-04T14:32:58;4.10;99.90
8860;DHT22;4466;50.948;4.832;2023-12-04T14:35:24;4.10;99.90
8860;DHT22;4466;50.948;4.832;2023-12-04T14:37:49;4.10;99.90
8860;DHT22;4466;50.948;4.832;2023-12-04T14:40:18;4.20;99.90
8860;DHT22;4466;50.948;4.832;2023-12-04T14:42:45;4.10;99.90
8860;DHT22;4466;50.948;4.832;2023-12-04T14:45:11;4.20;99.90
8860;DHT22;4466;50.948;4.832;2023-12-04T14:47:37;4.20;99.90
8860;DHT22;4466;50.948;4.832;2023-12-04T14:50:04;4.20;99.90
8860;DHT22;4466;50.948;4.832;2023-12-04T14:52:30;4.20;99.90
8860;DHT22;4466;50.948;4.832;2023-12-04T14:54:57;4.10;99.90
8860;DHT22;4466;50.948;4.832;2023-12-04T14:57:35;4.20;99.90
8860;DHT22;4466;50.948;4.832;2023-12-04T15:00:29;4.20;99.90
8860;DHT22;4466;50.948;4.832;2023-12-04T15:03:13;4.10;99.90
8860;DHT22;4466;50.948;4.832;2023-12-04T15:05:57;4.10;99.90
8860;DHT22;4466;50.948;4.832;2023-12-04T15:08:23;4.20;99.90
8860;DHT22;4466;50.948;4.832;2023-12-04T15:10:48;4.20;99.90
8860;DHT22;4466;50.948;4.832;2023-12-04T15:13:33;4.10;99.90
8860;DHT22;4466;50.948;4.832;2023-12-04T15:16:04;4.10;99.90
8860;DHT22;4466;50.948;4.832;2023-12-04T15:18:39;4.10;99.90
8860;DHT22;4466;50.948;4.832;2023-12-04T15:21:11;4.20;99.90
8860;DHT22;4466;50.948;4.832;2023-12-04T15:23:37;4.20;99.90
8860;DHT22;4466;50.948;4.832;2023-12-04T15:26:03;4.20;99.90
8860;DHT22;4466;50.948;4.832;2023-12-04T15:28:49;4.10;99.90
8860;DHT22;4466;50.948;4.832;2023-12-04T15:31:15;4.20;99.90
8860;DHT22;4466;50.948;4.832;2023-12-04T15:33:41;4.20;99.90
8860;DHT22;4466;50.948;4.832;2023-12-04T15:36:06;4.20;99.90
8860;DHT22;4466;50.948;4.832;2023-12-04T15:38:42;4.20;99.90
8860;DHT22;4466;50.948;4.832;2023-12-04T15:41:07;4.20;99.90
8860;DHT22;4466;50.948;4.832;2023-12-04T15:43:34;4.20;99.90
8860;DHT22;4466;50.948;4.832;2023-12-04T15:46:01;4.20;99.90
8860;DHT22;4466;50.948;4.832;2023-12-04T15:48:27;4.20;99.90
8860;DHT22;4466;50.948;4.832;2023-12-04T15:50:52;4.20;99.90
8860;DHT22;4466;50.948;4.832;2023-12-04T15:53:33;4.20;99.90
8860;DHT22;4466;50.948;4.832;2023-12-04T15:55:59;4.30;99.90
8860;DHT22;4466;50.948;4.832;2023-12-04T15:58:34;4.20;99.90
8860;DHT22;4466;50.948;4.832;2023-12-04T16:01:00;4.20;99.90
8860;DHT22;4466;50.948;4.832;2023-12-04T16:03:26;4.20;99.90
8860;DHT22;4466;50.948;4.832;2023-12-04T16:05:52;4.20;99.90
8860;DHT22;4466;50.948;4.832;2023-12-04T16:08:18;4.20;99.90
8860;DHT22;4466;50.948;4.832;2023-12-04T16:10:43;4.20;99.90
8860;DHT22;4466;50.948;4.832;2023-12-04T16:13:10;4.20;99.90
8860;DHT22;4466;50.948;4.832;2023-12-04T16:15:39;4.20;99.90
8860;DHT22;4466;50.948;4.832;2023-12-04T16:18:10;4.30;99.90
8860;DHT22;4466;50.948;4.832;2023-12-04T16:20:37;4.20;99.90
8860;DHT22;4466;50.948;4.832;2023-12-04T16:23:03;4.20;99.90
8860;DHT22;4466;50.948;4.832;2023-12-04T16:25:44;4.20;99.90
8860;DHT22;4466;50.948;4.832;2023-12-04T16:28:09;4.20;99.90
8860;DHT22;4466;50.948;4.832;2023-12-04T16:30:37;4.20;99.90
8860;DHT22;4466;50.948;4.832;2023-12-04T16:33:03;4.20;99.90
8860;DHT22;4466;50.948;4.832;2023-12-04T16:35:29;4.20;99.90